sensor_id;sensor_type;location;lat;lon;timestamp;P1;durP1;ratioP1;P2;durP2;ratioP2
78891;SDS011;68368;51.728;5.248;2023-04-16T00:00:28;8.20;;;2.10;;
78891;SDS011;68368;51.728;5.248;2023-04-16T00:02:31;5.90;;;1.80;;
78891;SDS011;68368;51.728;5.248;2023-04-16T00:04:34;5.70;;;2.50;;
78891;SDS011;68368;51.728;5.248;2023-04-16T00:06:37;10.10;;;2.60;;
78891;SDS011;68368;51.728;5.248;2023-04-16T00:08:40;8.70;;;2.80;;
78891;SDS011;68368;51.728;5.248;2023-04-16T00:10:44;5.40;;;2.40;;
78891;SDS011;68368;51.728;5.248;2023-04-16T00:12:47;6.60;;;2.50;;
78891;SDS011;68368;51.728;5.248;2023-04-16T00:14:50;5.80;;;3.30;;
78891;SDS011;68368;51.728;5.248;2023-04-16T00:16:53;5.40;;;2.90;;
78891;SDS011;68368;51.728;5.248;2023-04-16T00:18:56;7.30;;;2.90;;
78891;SDS011;68368;51.728;5.248;2023-04-16T00:20:59;6.00;;;2.70;;
78891;SDS011;68368;51.728;5.248;2023-04-16T00:23:05;6.10;;;3.10;;
78891;SDS011;68368;51.728;5.248;2023-04-16T00:25:08;5.90;;;2.90;;
78891;SDS011;68368;51.728;5.248;2023-04-16T00:27:11;6.70;;;3.40;;
78891;SDS011;68368;51.728;5.248;2023-04-16T00:29:15;7.00;;;3.00;;
78891;SDS011;68368;51.728;5.248;2023-04-16T00:31:18;7.00;;;2.90;;
78891;SDS011;68368;51.728;5.248;2023-04-16T00:33:29;7.70;;;3.20;;
78891;SDS011;68368;51.728;5.248;2023-04-16T00:35:32;9.00;;;2.90;;
78891;SDS011;68368;51.728;5.248;2023-04-16T00:37:36;5.70;;;2.90;;
78891;SDS011;68368;51.728;5.248;2023-04-16T00:39:39;8.90;;;3.10;;
78891;SDS011;68368;51.728;5.248;2023-04-16T00:41:43;10.10;;;3.50;;
78891;SDS011;68368;51.728;5.248;2023-04-16T00:43:46;7.90;;;3.60;;
78891;SDS011;68368;51.728;5.248;2023-04-16T00:45:49;5.80;;;3.00;;
78891;SDS011;68368;51.728;5.248;2023-04-16T00:47:53;6.50;;;3.60;;
78891;SDS011;68368;51.728;5.248;2023-04-16T00:49:58;7.60;;;3.50;;
78891;SDS011;68368;51.728;5.248;2023-04-16T00:52:05;8.90;;;4.30;;
78891;SDS011;68368;51.728;5.248;2023-04-16T00:54:09;5.70;;;2.50;;
78891;SDS011;68368;51.728;5.248;2023-04-16T00:56:12;6.90;;;3.40;;
78891;SDS011;68368;51.728;5.248;2023-04-16T00:58:15;5.70;;;3.70;;
78891;SDS011;68368;51.728;5.248;2023-04-16T01:00:19;14.20;;;4.70;;
78891;SDS011;68368;51.728;5.248;2023-04-16T01:02:22;5.30;;;2.30;;
78891;SDS011;68368;51.728;5.248;2023-04-16T01:04:26;7.20;;;3.30;;
78891;SDS011;68368;51.728;5.248;2023-04-16T01:06:29;6.00;;;3.20;;
78891;SDS011;68368;51.728;5.248;2023-04-16T01:08:33;7.00;;;3.30;;
78891;SDS011;68368;51.728;5.248;2023-04-16T01:10:36;6.20;;;3.10;;
78891;SDS011;68368;51.728;5.248;2023-04-16T01:12:40;7.80;;;3.50;;
78891;SDS011;68368;51.728;5.248;2023-04-16T01:14:45;5.20;;;3.20;;
78891;SDS011;68368;51.728;5.248;2023-04-16T01:16:48;8.30;;;3.10;;
78891;SDS011;68368;51.728;5.248;2023-04-16T01:18:52;4.70;;;3.10;;
78891;SDS011;68368;51.728;5.248;2023-04-16T01:20:55;5.20;;;2.70;;
78891;SDS011;68368;51.728;5.248;2023-04-16T01:22:58;6.20;;;3.00;;
78891;SDS011;68368;51.728;5.248;2023-04-16T01:25:02;5.90;;;2.90;;
78891;SDS011;68368;51.728;5.248;2023-04-16T01:27:06;7.30;;;3.60;;
78891;SDS011;68368;51.728;5.248;2023-04-16T01:29:09;5.70;;;2.60;;
78891;SDS011;68368;51.728;5.248;2023-04-16T01:31:13;4.10;;;1.60;;
78891;SDS011;68368;51.728;5.248;2023-04-16T01:33:16;7.20;;;3.10;;
78891;SDS011;68368;51.728;5.248;2023-04-16T01:35:21;4.50;;;2.40;;
78891;SDS011;68368;51.728;5.248;2023-04-16T01:37:24;5.70;;;2.90;;
78891;SDS011;68368;51.728;5.248;2023-04-16T01:39:27;4.10;;;2.30;;
78891;SDS011;68368;51.728;5.248;2023-04-16T01:41:31;3.40;;;2.00;;
78891;SDS011;68368;51.728;5.248;2023-04-16T01:43:34;4.70;;;2.20;;
78891;SDS011;68368;51.728;5.248;2023-04-16T01:45:37;5.40;;;2.20;;
78891;SDS011;68368;51.728;5.248;2023-04-16T01:47:41;3.30;;;1.80;;
78891;SDS011;68368;51.728;5.248;2023-04-16T01:49:44;5.40;;;2.30;;
78891;SDS011;68368;51.728;5.248;2023-04-16T01:51:48;4.60;;;2.20;;
78891;SDS011;68368;51.728;5.248;2023-04-16T01:53:51;4.70;;;2.00;;
78891;SDS011;68368;51.728;5.248;2023-04-16T01:55:55;1.90;;;1.10;;
78891;SDS011;68368;51.728;5.248;2023-04-16T01:57:58;3.40;;;1.70;;
78891;SDS011;68368;51.728;5.248;2023-04-16T02:00:01;6.00;;;1.90;;
78891;SDS011;68368;51.728;5.248;2023-04-16T02:02:07;8.40;;;2.80;;
78891;SDS011;68368;51.728;5.248;2023-04-16T02:04:12;6.70;;;2.70;;
78891;SDS011;68368;51.728;5.248;2023-04-16T02:06:15;5.10;;;2.40;;
78891;SDS011;68368;51.728;5.248;2023-04-16T02:08:18;6.20;;;2.60;;
78891;SDS011;68368;51.728;5.248;2023-04-16T02:10:22;6.60;;;2.60;;
78891;SDS011;68368;51.728;5.248;2023-04-16T02:12:26;5.80;;;2.60;;
78891;SDS011;68368;51.728;5.248;2023-04-16T02:14:29;3.40;;;2.40;;
78891;SDS011;68368;51.728;5.248;2023-04-16T02:16:32;6.90;;;3.00;;
78891;SDS011;68368;51.728;5.248;2023-04-16T02:18:36;7.00;;;3.50;;
78891;SDS011;68368;51.728;5.248;2023-04-16T02:20:40;6.30;;;2.20;;
78891;SDS011;68368;51.728;5.248;2023-04-16T02:22:44;4.90;;;3.00;;
78891;SDS011;68368;51.728;5.248;2023-04-16T02:24:47;7.30;;;3.10;;
78891;SDS011;68368;51.728;5.248;2023-04-16T02:26:51;7.20;;;3.20;;
78891;SDS011;68368;51.728;5.248;2023-04-16T02:28:54;5.20;;;3.10;;
78891;SDS011;68368;51.728;5.248;2023-04-16T02:30:57;5.10;;;2.60;;
78891;SDS011;68368;51.728;5.248;2023-04-16T02:33:00;5.50;;;3.40;;
78891;SDS011;68368;51.728;5.248;2023-04-16T02:35:05;4.50;;;2.50;;
78891;SDS011;68368;51.728;5.248;2023-04-16T02:37:08;6.80;;;3.60;;
78891;SDS011;68368;51.728;5.248;2023-04-16T02:39:11;4.40;;;2.80;;
78891;SDS011;68368;51.728;5.248;2023-04-16T02:41:14;6.80;;;3.10;;
78891;SDS011;68368;51.728;5.248;2023-04-16T02:43:18;5.70;;;3.10;;
78891;SDS011;68368;51.728;5.248;2023-04-16T02:45:21;5.40;;;2.50;;
78891;SDS011;68368;51.728;5.248;2023-04-16T02:47:24;7.40;;;3.30;;
78891;SDS011;68368;51.728;5.248;2023-04-16T02:49:28;6.30;;;4.00;;
78891;SDS011;68368;51.728;5.248;2023-04-16T02:51:31;8.40;;;4.00;;
78891;SDS011;68368;51.728;5.248;2023-04-16T02:53:34;6.40;;;3.60;;
78891;SDS011;68368;51.728;5.248;2023-04-16T02:55:37;6.90;;;3.80;;
78891;SDS011;68368;51.728;5.248;2023-04-16T02:57:40;7.80;;;4.30;;
78891;SDS011;68368;51.728;5.248;2023-04-16T02:59:44;7.50;;;4.10;;
78891;SDS011;68368;51.728;5.248;2023-04-16T03:01:47;11.00;;;4.00;;
78891;SDS011;68368;51.728;5.248;2023-04-16T03:03:50;9.00;;;4.10;;
78891;SDS011;68368;51.728;5.248;2023-04-16T03:05:53;6.80;;;3.60;;
78891;SDS011;68368;51.728;5.248;2023-04-16T03:07:56;8.20;;;4.20;;
78891;SDS011;68368;51.728;5.248;2023-04-16T03:09:59;9.50;;;4.30;;
78891;SDS011;68368;51.728;5.248;2023-04-16T03:12:03;5.20;;;2.40;;
78891;SDS011;68368;51.728;5.248;2023-04-16T03:14:06;6.80;;;4.40;;
78891;SDS011;68368;51.728;5.248;2023-04-16T03:16:10;5.60;;;3.10;;
78891;SDS011;68368;51.728;5.248;2023-04-16T03:18:13;4.60;;;3.00;;
78891;SDS011;68368;51.728;5.248;2023-04-16T03:20:16;8.00;;;4.50;;
78891;SDS011;68368;51.728;5.248;2023-04-16T03:22:19;8.20;;;3.80;;
78891;SDS011;68368;51.728;5.248;2023-04-16T03:24:23;9.40;;;4.30;;
78891;SDS011;68368;51.728;5.248;2023-04-16T03:26:26;7.50;;;3.80;;
78891;SDS011;68368;51.728;5.248;2023-04-16T03:28:29;6.20;;;3.80;;
78891;SDS011;68368;51.728;5.248;2023-04-16T03:30:33;8.70;;;3.90;;
78891;SDS011;68368;51.728;5.248;2023-04-16T03:32:36;8.30;;;3.90;;
78891;SDS011;68368;51.728;5.248;2023-04-16T03:34:39;7.40;;;3.70;;
78891;SDS011;68368;51.728;5.248;2023-04-16T03:36:45;7.00;;;3.50;;
78891;SDS011;68368;51.728;5.248;2023-04-16T03:38:48;7.00;;;3.60;;
78891;SDS011;68368;51.728;5.248;2023-04-16T03:40:52;8.50;;;4.30;;
78891;SDS011;68368;51.728;5.248;2023-04-16T03:42:55;7.10;;;2.90;;
78891;SDS011;68368;51.728;5.248;2023-04-16T03:44:58;6.50;;;3.20;;
78891;SDS011;68368;51.728;5.248;2023-04-16T03:47:01;6.60;;;4.00;;
78891;SDS011;68368;51.728;5.248;2023-04-16T03:49:09;9.80;;;4.70;;
78891;SDS011;68368;51.728;5.248;2023-04-16T03:51:12;6.90;;;3.90;;
78891;SDS011;68368;51.728;5.248;2023-04-16T03:53:15;6.20;;;3.80;;
78891;SDS011;68368;51.728;5.248;2023-04-16T03:55:19;13.20;;;5.50;;
78891;SDS011;68368;51.728;5.248;2023-04-16T03:57:22;8.00;;;3.50;;
78891;SDS011;68368;51.728;5.248;2023-04-16T03:59:25;8.60;;;4.40;;
78891;SDS011;68368;51.728;5.248;2023-04-16T04:01:28;8.90;;;3.80;;
78891;SDS011;68368;51.728;5.248;2023-04-16T04:03:32;10.20;;;4.10;;
78891;SDS011;68368;51.728;5.248;2023-04-16T04:05:36;11.10;;;4.80;;
78891;SDS011;68368;51.728;5.248;2023-04-16T04:07:42;5.70;;;2.60;;
78891;SDS011;68368;51.728;5.248;2023-04-16T04:09:45;7.50;;;3.00;;
78891;SDS011;68368;51.728;5.248;2023-04-16T04:11:49;8.40;;;4.10;;
78891;SDS011;68368;51.728;5.248;2023-04-16T04:13:52;7.30;;;4.30;;
78891;SDS011;68368;51.728;5.248;2023-04-16T04:15:55;9.30;;;3.90;;
78891;SDS011;68368;51.728;5.248;2023-04-16T04:17:58;8.30;;;4.60;;
78891;SDS011;68368;51.728;5.248;2023-04-16T04:20:02;8.50;;;4.80;;
78891;SDS011;68368;51.728;5.248;2023-04-16T04:22:06;9.20;;;4.20;;
78891;SDS011;68368;51.728;5.248;2023-04-16T04:24:09;9.40;;;3.50;;
78891;SDS011;68368;51.728;5.248;2023-04-16T04:26:12;8.80;;;4.10;;
78891;SDS011;68368;51.728;5.248;2023-04-16T04:28:15;9.30;;;5.40;;
78891;SDS011;68368;51.728;5.248;2023-04-16T04:30:19;13.10;;;5.60;;
78891;SDS011;68368;51.728;5.248;2023-04-16T04:32:22;7.80;;;4.10;;
78891;SDS011;68368;51.728;5.248;2023-04-16T04:34:25;9.30;;;3.80;;
78891;SDS011;68368;51.728;5.248;2023-04-16T04:36:28;13.80;;;4.40;;
78891;SDS011;68368;51.728;5.248;2023-04-16T04:38:32;9.10;;;4.00;;
78891;SDS011;68368;51.728;5.248;2023-04-16T04:40:37;10.40;;;4.50;;
78891;SDS011;68368;51.728;5.248;2023-04-16T04:42:40;8.50;;;3.50;;
78891;SDS011;68368;51.728;5.248;2023-04-16T04:44:43;9.70;;;4.20;;
78891;SDS011;68368;51.728;5.248;2023-04-16T04:46:46;10.10;;;4.70;;
78891;SDS011;68368;51.728;5.248;2023-04-16T04:48:49;9.30;;;3.30;;
78891;SDS011;68368;51.728;5.248;2023-04-16T04:50:53;8.50;;;3.70;;
78891;SDS011;68368;51.728;5.248;2023-04-16T04:52:56;8.70;;;3.80;;
78891;SDS011;68368;51.728;5.248;2023-04-16T04:55:01;6.80;;;3.00;;
78891;SDS011;68368;51.728;5.248;2023-04-16T04:57:04;11.10;;;4.60;;
78891;SDS011;68368;51.728;5.248;2023-04-16T04:59:07;8.80;;;3.90;;
78891;SDS011;68368;51.728;5.248;2023-04-16T05:01:10;9.10;;;4.00;;
78891;SDS011;68368;51.728;5.248;2023-04-16T05:03:19;9.80;;;4.40;;
78891;SDS011;68368;51.728;5.248;2023-04-16T05:05:23;9.30;;;4.80;;
78891;SDS011;68368;51.728;5.248;2023-04-16T05:07:26;10.20;;;5.00;;
78891;SDS011;68368;51.728;5.248;2023-04-16T05:09:29;10.30;;;4.70;;
78891;SDS011;68368;51.728;5.248;2023-04-16T05:11:42;8.40;;;3.80;;
78891;SDS011;68368;51.728;5.248;2023-04-16T05:13:45;7.80;;;4.50;;
78891;SDS011;68368;51.728;5.248;2023-04-16T05:15:48;10.40;;;4.90;;
78891;SDS011;68368;51.728;5.248;2023-04-16T05:17:52;12.70;;;5.40;;
78891;SDS011;68368;51.728;5.248;2023-04-16T05:19:55;8.50;;;4.30;;
78891;SDS011;68368;51.728;5.248;2023-04-16T05:21:58;8.30;;;4.50;;
78891;SDS011;68368;51.728;5.248;2023-04-16T05:24:02;8.30;;;3.90;;
78891;SDS011;68368;51.728;5.248;2023-04-16T05:26:05;13.10;;;4.70;;
78891;SDS011;68368;51.728;5.248;2023-04-16T05:28:08;8.40;;;4.20;;
78891;SDS011;68368;51.728;5.248;2023-04-16T05:30:12;8.10;;;5.30;;
78891;SDS011;68368;51.728;5.248;2023-04-16T05:32:15;6.20;;;3.70;;
78891;SDS011;68368;51.728;5.248;2023-04-16T05:34:18;10.70;;;4.60;;
78891;SDS011;68368;51.728;5.248;2023-04-16T05:36:22;16.00;;;6.30;;
78891;SDS011;68368;51.728;5.248;2023-04-16T05:38:25;7.50;;;4.20;;
78891;SDS011;68368;51.728;5.248;2023-04-16T05:40:28;9.20;;;4.80;;
78891;SDS011;68368;51.728;5.248;2023-04-16T05:42:32;7.70;;;4.20;;
78891;SDS011;68368;51.728;5.248;2023-04-16T05:44:35;11.30;;;5.40;;
78891;SDS011;68368;51.728;5.248;2023-04-16T05:46:41;11.20;;;5.30;;
78891;SDS011;68368;51.728;5.248;2023-04-16T05:48:44;10.30;;;5.60;;
78891;SDS011;68368;51.728;5.248;2023-04-16T05:50:47;12.20;;;5.90;;
78891;SDS011;68368;51.728;5.248;2023-04-16T05:52:51;12.50;;;5.60;;
78891;SDS011;68368;51.728;5.248;2023-04-16T05:54:54;9.10;;;4.00;;
78891;SDS011;68368;51.728;5.248;2023-04-16T05:56:57;9.70;;;4.60;;
78891;SDS011;68368;51.728;5.248;2023-04-16T05:59:01;7.90;;;4.50;;
78891;SDS011;68368;51.728;5.248;2023-04-16T06:01:04;9.20;;;4.80;;
78891;SDS011;68368;51.728;5.248;2023-04-16T06:03:07;15.60;;;5.70;;
78891;SDS011;68368;51.728;5.248;2023-04-16T06:05:11;11.80;;;6.30;;
78891;SDS011;68368;51.728;5.248;2023-04-16T06:07:14;15.00;;;6.30;;
78891;SDS011;68368;51.728;5.248;2023-04-16T06:09:18;10.10;;;5.20;;
78891;SDS011;68368;51.728;5.248;2023-04-16T06:11:21;14.80;;;6.60;;
78891;SDS011;68368;51.728;5.248;2023-04-16T06:13:24;19.00;;;6.20;;
78891;SDS011;68368;51.728;5.248;2023-04-16T06:15:27;18.00;;;6.90;;
78891;SDS011;68368;51.728;5.248;2023-04-16T06:17:31;14.00;;;6.60;;
78891;SDS011;68368;51.728;5.248;2023-04-16T06:19:34;16.90;;;7.10;;
78891;SDS011;68368;51.728;5.248;2023-04-16T06:21:37;10.50;;;4.50;;
78891;SDS011;68368;51.728;5.248;2023-04-16T06:23:41;12.10;;;6.60;;
78891;SDS011;68368;51.728;5.248;2023-04-16T06:25:44;12.20;;;5.10;;
78891;SDS011;68368;51.728;5.248;2023-04-16T06:27:47;18.30;;;7.90;;
78891;SDS011;68368;51.728;5.248;2023-04-16T06:29:51;17.10;;;8.40;;
78891;SDS011;68368;51.728;5.248;2023-04-16T06:31:54;12.80;;;5.70;;
78891;SDS011;68368;51.728;5.248;2023-04-16T06:33:57;11.30;;;5.30;;
78891;SDS011;68368;51.728;5.248;2023-04-16T06:36:00;10.20;;;4.90;;
78891;SDS011;68368;51.728;5.248;2023-04-16T06:38:04;22.00;;;8.40;;
78891;SDS011;68368;51.728;5.248;2023-04-16T06:40:10;16.80;;;7.60;;
78891;SDS011;68368;51.728;5.248;2023-04-16T06:42:13;20.90;;;8.70;;
78891;SDS011;68368;51.728;5.248;2023-04-16T06:44:16;16.90;;;7.30;;
78891;SDS011;68368;51.728;5.248;2023-04-16T06:46:19;19.10;;;8.10;;
78891;SDS011;68368;51.728;5.248;2023-04-16T06:48:23;14.80;;;7.30;;
78891;SDS011;68368;51.728;5.248;2023-04-16T06:50:26;19.60;;;8.20;;
78891;SDS011;68368;51.728;5.248;2023-04-16T06:52:32;15.40;;;6.60;;
78891;SDS011;68368;51.728;5.248;2023-04-16T06:54:35;20.50;;;7.30;;
78891;SDS011;68368;51.728;5.248;2023-04-16T06:56:38;15.60;;;6.80;;
78891;SDS011;68368;51.728;5.248;2023-04-16T06:58:44;18.10;;;6.90;;
78891;SDS011;68368;51.728;5.248;2023-04-16T07:00:47;23.20;;;9.20;;
78891;SDS011;68368;51.728;5.248;2023-04-16T07:02:54;18.20;;;8.30;;
78891;SDS011;68368;51.728;5.248;2023-04-16T07:04:59;12.10;;;4.90;;
78891;SDS011;68368;51.728;5.248;2023-04-16T07:07:02;11.40;;;4.50;;
78891;SDS011;68368;51.728;5.248;2023-04-16T07:09:05;18.10;;;7.30;;
78891;SDS011;68368;51.728;5.248;2023-04-16T07:11:10;10.00;;;4.80;;
78891;SDS011;68368;51.728;5.248;2023-04-16T07:13:13;20.70;;;6.30;;
78891;SDS011;68368;51.728;5.248;2023-04-16T07:15:16;13.40;;;5.20;;
78891;SDS011;68368;51.728;5.248;2023-04-16T07:17:22;10.80;;;4.50;;
78891;SDS011;68368;51.728;5.248;2023-04-16T07:19:25;19.20;;;8.50;;
78891;SDS011;68368;51.728;5.248;2023-04-16T07:21:28;23.20;;;8.50;;
78891;SDS011;68368;51.728;5.248;2023-04-16T07:23:32;10.80;;;4.80;;
78891;SDS011;68368;51.728;5.248;2023-04-16T07:25:35;18.20;;;8.40;;
78891;SDS011;68368;51.728;5.248;2023-04-16T07:27:38;9.60;;;4.80;;
78891;SDS011;68368;51.728;5.248;2023-04-16T07:29:42;15.60;;;7.10;;
78891;SDS011;68368;51.728;5.248;2023-04-16T07:31:45;18.10;;;7.40;;
78891;SDS011;68368;51.728;5.248;2023-04-16T07:33:49;19.90;;;8.30;;
78891;SDS011;68368;51.728;5.248;2023-04-16T07:35:54;14.40;;;6.10;;
78891;SDS011;68368;51.728;5.248;2023-04-16T07:37:57;18.40;;;9.10;;
78891;SDS011;68368;51.728;5.248;2023-04-16T07:40:03;11.70;;;6.40;;
78891;SDS011;68368;51.728;5.248;2023-04-16T07:42:08;18.90;;;7.70;;
78891;SDS011;68368;51.728;5.248;2023-04-16T07:44:11;17.50;;;8.30;;
78891;SDS011;68368;51.728;5.248;2023-04-16T07:46:15;17.40;;;8.50;;
78891;SDS011;68368;51.728;5.248;2023-04-16T07:48:18;13.20;;;6.40;;
78891;SDS011;68368;51.728;5.248;2023-04-16T07:50:23;15.10;;;6.70;;
78891;SDS011;68368;51.728;5.248;2023-04-16T07:52:27;19.70;;;8.70;;
78891;SDS011;68368;51.728;5.248;2023-04-16T07:54:30;14.50;;;6.00;;
78891;SDS011;68368;51.728;5.248;2023-04-16T07:56:34;16.30;;;7.00;;
78891;SDS011;68368;51.728;5.248;2023-04-16T07:58:37;13.40;;;5.60;;
78891;SDS011;68368;51.728;5.248;2023-04-16T08:00:40;11.70;;;5.60;;
78891;SDS011;68368;51.728;5.248;2023-04-16T08:02:44;15.70;;;8.20;;
78891;SDS011;68368;51.728;5.248;2023-04-16T08:04:47;14.60;;;6.90;;
78891;SDS011;68368;51.728;5.248;2023-04-16T08:06:50;16.70;;;8.20;;
78891;SDS011;68368;51.728;5.248;2023-04-16T08:08:54;11.10;;;5.00;;
78891;SDS011;68368;51.728;5.248;2023-04-16T08:10:57;13.20;;;6.90;;
78891;SDS011;68368;51.728;5.248;2023-04-16T08:13:01;10.30;;;5.30;;
78891;SDS011;68368;51.728;5.248;2023-04-16T08:15:05;13.20;;;6.20;;
78891;SDS011;68368;51.728;5.248;2023-04-16T08:17:12;11.00;;;5.00;;
78891;SDS011;68368;51.728;5.248;2023-04-16T08:19:16;14.60;;;6.70;;
78891;SDS011;68368;51.728;5.248;2023-04-16T08:21:21;12.70;;;6.10;;
78891;SDS011;68368;51.728;5.248;2023-04-16T08:23:24;13.00;;;6.30;;
78891;SDS011;68368;51.728;5.248;2023-04-16T08:25:28;14.70;;;6.00;;
78891;SDS011;68368;51.728;5.248;2023-04-16T08:27:31;13.30;;;6.00;;
78891;SDS011;68368;51.728;5.248;2023-04-16T08:29:35;12.80;;;6.20;;
78891;SDS011;68368;51.728;5.248;2023-04-16T08:31:38;14.80;;;6.80;;
78891;SDS011;68368;51.728;5.248;2023-04-16T08:33:43;12.60;;;6.50;;
78891;SDS011;68368;51.728;5.248;2023-04-16T08:35:46;9.80;;;4.60;;
78891;SDS011;68368;51.728;5.248;2023-04-16T08:37:50;11.20;;;6.40;;
78891;SDS011;68368;51.728;5.248;2023-04-16T08:39:53;14.80;;;7.40;;
78891;SDS011;68368;51.728;5.248;2023-04-16T08:41:56;14.60;;;7.00;;
78891;SDS011;68368;51.728;5.248;2023-04-16T08:44:03;18.60;;;7.30;;
78891;SDS011;68368;51.728;5.248;2023-04-16T08:46:09;13.40;;;5.80;;
78891;SDS011;68368;51.728;5.248;2023-04-16T08:48:13;14.30;;;6.00;;
78891;SDS011;68368;51.728;5.248;2023-04-16T08:50:21;12.70;;;6.50;;
78891;SDS011;68368;51.728;5.248;2023-04-16T08:52:25;9.90;;;5.00;;
78891;SDS011;68368;51.728;5.248;2023-04-16T08:54:33;11.90;;;7.10;;
78891;SDS011;68368;51.728;5.248;2023-04-16T08:56:43;17.00;;;7.70;;
78891;SDS011;68368;51.728;5.248;2023-04-16T08:58:50;14.10;;;7.50;;
78891;SDS011;68368;51.728;5.248;2023-04-16T09:00:55;11.60;;;6.60;;
78891;SDS011;68368;51.728;5.248;2023-04-16T09:02:58;12.00;;;5.10;;
78891;SDS011;68368;51.728;5.248;2023-04-16T09:05:03;16.20;;;6.80;;
78891;SDS011;68368;51.728;5.248;2023-04-16T09:07:10;15.90;;;8.00;;
78891;SDS011;68368;51.728;5.248;2023-04-16T09:09:13;12.20;;;5.30;;
78891;SDS011;68368;51.728;5.248;2023-04-16T09:11:18;16.90;;;9.30;;
78891;SDS011;68368;51.728;5.248;2023-04-16T09:13:23;15.60;;;8.50;;
78891;SDS011;68368;51.728;5.248;2023-04-16T09:15:27;8.50;;;4.80;;
78891;SDS011;68368;51.728;5.248;2023-04-16T09:17:30;11.50;;;5.40;;
78891;SDS011;68368;51.728;5.248;2023-04-16T09:19:37;15.50;;;8.00;;
78891;SDS011;68368;51.728;5.248;2023-04-16T09:21:41;12.60;;;5.90;;
78891;SDS011;68368;51.728;5.248;2023-04-16T09:23:46;16.30;;;8.10;;
78891;SDS011;68368;51.728;5.248;2023-04-16T09:25:50;16.90;;;8.80;;
78891;SDS011;68368;51.728;5.248;2023-04-16T09:27:53;14.70;;;7.40;;
78891;SDS011;68368;51.728;5.248;2023-04-16T09:29:59;16.50;;;8.20;;
78891;SDS011;68368;51.728;5.248;2023-04-16T09:32:23;16.50;;;8.00;;
78891;SDS011;68368;51.728;5.248;2023-04-16T09:34:27;13.30;;;6.40;;
78891;SDS011;68368;51.728;5.248;2023-04-16T09:36:32;11.50;;;5.90;;
78891;SDS011;68368;51.728;5.248;2023-04-16T09:38:46;11.60;;;4.80;;
78891;SDS011;68368;51.728;5.248;2023-04-16T09:40:51;15.10;;;8.10;;
78891;SDS011;68368;51.728;5.248;2023-04-16T09:43:12;12.10;;;7.60;;
78891;SDS011;68368;51.728;5.248;2023-04-16T09:45:16;13.90;;;7.50;;
78891;SDS011;68368;51.728;5.248;2023-04-16T09:47:20;16.50;;;8.30;;
78891;SDS011;68368;51.728;5.248;2023-04-16T09:49:25;13.60;;;7.40;;
78891;SDS011;68368;51.728;5.248;2023-04-16T09:51:28;13.10;;;7.40;;
78891;SDS011;68368;51.728;5.248;2023-04-16T09:53:38;16.50;;;8.40;;
78891;SDS011;68368;51.728;5.248;2023-04-16T09:55:44;12.80;;;8.10;;
78891;SDS011;68368;51.728;5.248;2023-04-16T09:57:50;13.20;;;6.80;;
78891;SDS011;68368;51.728;5.248;2023-04-16T10:00:02;14.00;;;8.20;;
78891;SDS011;68368;51.728;5.248;2023-04-16T10:02:08;10.70;;;6.10;;
78891;SDS011;68368;51.728;5.248;2023-04-16T10:04:12;14.20;;;7.10;;
78891;SDS011;68368;51.728;5.248;2023-04-16T10:06:17;8.20;;;4.80;;
78891;SDS011;68368;51.728;5.248;2023-04-16T10:08:21;13.40;;;7.10;;
78891;SDS011;68368;51.728;5.248;2023-04-16T10:10:25;14.60;;;7.70;;
78891;SDS011;68368;51.728;5.248;2023-04-16T10:12:29;11.60;;;6.60;;
78891;SDS011;68368;51.728;5.248;2023-04-16T10:14:32;13.00;;;7.00;;
78891;SDS011;68368;51.728;5.248;2023-04-16T10:16:38;9.20;;;4.20;;
78891;SDS011;68368;51.728;5.248;2023-04-16T10:18:42;13.20;;;7.30;;
78891;SDS011;68368;51.728;5.248;2023-04-16T10:20:47;10.20;;;5.00;;
78891;SDS011;68368;51.728;5.248;2023-04-16T10:22:51;9.90;;;5.90;;
78891;SDS011;68368;51.728;5.248;2023-04-16T10:24:57;11.10;;;6.70;;
78891;SDS011;68368;51.728;5.248;2023-04-16T10:27:01;10.20;;;5.70;;
78891;SDS011;68368;51.728;5.248;2023-04-16T10:29:04;13.80;;;7.80;;
78891;SDS011;68368;51.728;5.248;2023-04-16T10:31:09;11.10;;;6.50;;
78891;SDS011;68368;51.728;5.248;2023-04-16T10:33:12;13.50;;;6.90;;
78891;SDS011;68368;51.728;5.248;2023-04-16T10:35:16;11.10;;;7.10;;
78891;SDS011;68368;51.728;5.248;2023-04-16T10:37:26;10.60;;;6.40;;
78891;SDS011;68368;51.728;5.248;2023-04-16T10:39:31;12.50;;;6.40;;
78891;SDS011;68368;51.728;5.248;2023-04-16T10:41:36;13.20;;;6.70;;
78891;SDS011;68368;51.728;5.248;2023-04-16T10:43:42;11.50;;;6.00;;
78891;SDS011;68368;51.728;5.248;2023-04-16T10:45:46;12.70;;;6.90;;
78891;SDS011;68368;51.728;5.248;2023-04-16T10:47:50;9.50;;;5.60;;
78891;SDS011;68368;51.728;5.248;2023-04-16T10:49:56;11.90;;;6.00;;
78891;SDS011;68368;51.728;5.248;2023-04-16T10:52:00;11.10;;;5.10;;
78891;SDS011;68368;51.728;5.248;2023-04-16T10:54:20;8.70;;;5.40;;
78891;SDS011;68368;51.728;5.248;2023-04-16T10:56:25;10.10;;;5.50;;
78891;SDS011;68368;51.728;5.248;2023-04-16T10:58:34;12.00;;;6.30;;
78891;SDS011;68368;51.728;5.248;2023-04-16T11:00:48;12.80;;;6.80;;
78891;SDS011;68368;51.728;5.248;2023-04-16T11:02:54;14.10;;;6.80;;
78891;SDS011;68368;51.728;5.248;2023-04-16T11:04:57;9.20;;;5.90;;
78891;SDS011;68368;51.728;5.248;2023-04-16T11:07:05;9.70;;;5.10;;
78891;SDS011;68368;51.728;5.248;2023-04-16T11:11:47;10.50;;;6.30;;
78891;SDS011;68368;51.728;5.248;2023-04-16T11:13:54;12.20;;;6.50;;
78891;SDS011;68368;51.728;5.248;2023-04-16T11:15:58;12.50;;;6.90;;
78891;SDS011;68368;51.728;5.248;2023-04-16T11:18:02;15.20;;;6.30;;
78891;SDS011;68368;51.728;5.248;2023-04-16T11:20:06;7.30;;;4.40;;
78891;SDS011;68368;51.728;5.248;2023-04-16T11:22:15;10.10;;;4.50;;
78891;SDS011;68368;51.728;5.248;2023-04-16T11:24:19;10.20;;;5.20;;
78891;SDS011;68368;51.728;5.248;2023-04-16T11:26:29;11.00;;;6.00;;
78891;SDS011;68368;51.728;5.248;2023-04-16T11:28:33;11.70;;;6.90;;
78891;SDS011;68368;51.728;5.248;2023-04-16T11:30:36;10.90;;;6.40;;
78891;SDS011;68368;51.728;5.248;2023-04-16T11:32:43;10.80;;;4.60;;
78891;SDS011;68368;51.728;5.248;2023-04-16T11:34:47;7.40;;;4.80;;
78891;SDS011;68368;51.728;5.248;2023-04-16T11:36:50;12.60;;;5.70;;
78891;SDS011;68368;51.728;5.248;2023-04-16T11:39:01;9.40;;;5.00;;
78891;SDS011;68368;51.728;5.248;2023-04-16T11:41:04;9.80;;;5.50;;
78891;SDS011;68368;51.728;5.248;2023-04-16T11:43:14;10.20;;;5.60;;
78891;SDS011;68368;51.728;5.248;2023-04-16T11:45:18;6.80;;;3.40;;
78891;SDS011;68368;51.728;5.248;2023-04-16T11:47:21;9.40;;;5.30;;
78891;SDS011;68368;51.728;5.248;2023-04-16T11:49:27;9.50;;;5.40;;
78891;SDS011;68368;51.728;5.248;2023-04-16T11:51:30;9.30;;;5.80;;
78891;SDS011;68368;51.728;5.248;2023-04-16T11:53:45;9.40;;;5.90;;
78891;SDS011;68368;51.728;5.248;2023-04-16T11:55:49;7.80;;;4.90;;
78891;SDS011;68368;51.728;5.248;2023-04-16T11:57:53;10.00;;;5.20;;
78891;SDS011;68368;51.728;5.248;2023-04-16T11:59:56;10.70;;;5.50;;
78891;SDS011;68368;51.728;5.248;2023-04-16T12:02:00;8.30;;;5.20;;
78891;SDS011;68368;51.728;5.248;2023-04-16T12:04:04;9.50;;;4.90;;
78891;SDS011;68368;51.728;5.248;2023-04-16T12:06:07;8.80;;;5.40;;
78891;SDS011;68368;51.728;5.248;2023-04-16T12:08:11;8.50;;;5.10;;
78891;SDS011;68368;51.728;5.248;2023-04-16T12:10:29;11.20;;;5.10;;
78891;SDS011;68368;51.728;5.248;2023-04-16T12:12:33;8.10;;;4.40;;
78891;SDS011;68368;51.728;5.248;2023-04-16T12:14:36;8.60;;;5.10;;
78891;SDS011;68368;51.728;5.248;2023-04-16T12:16:49;7.30;;;4.90;;
78891;SDS011;68368;51.728;5.248;2023-04-16T12:18:59;9.40;;;5.90;;
78891;SDS011;68368;51.728;5.248;2023-04-16T12:21:04;8.70;;;5.40;;
78891;SDS011;68368;51.728;5.248;2023-04-16T12:23:07;8.60;;;5.00;;
78891;SDS011;68368;51.728;5.248;2023-04-16T12:25:22;10.70;;;4.70;;